Flight Track Log - Related Links

Times and Time Zones

All times are in EDT time to prevent confusion due to time zone crossing. See the THY351 flight status page for this flight to view local times or setup timezone preferences in your user account.

Time Position Orientation Groundspeed Altitude Reporting Facility
EDT Latitude Longitude Course Direction KTS MPH feet Rate Location/Type
Sun 09:40:32 PM 43.7061 74.8169 282° West  Level Estimated
Sun 09:41:32 PM 43.7289 74.6629 282° West  Level Estimated
Sun 09:42:32 PM 43.7514 74.5089 281° West  Level Estimated
Sun 09:43:32 PM 43.7738 74.3547 281° West  Level Estimated
Sun 09:44:32 PM 43.7959 74.2004 281° West  Level Estimated
Sun 09:45:32 PM 43.8178 74.0460 281° West  Level Estimated
Sun 09:46:32 PM 43.8396 73.8915 281° West  Level Estimated
Sun 09:47:32 PM 43.8611 73.7368 281° West  Level Estimated
Sun 09:48:32 PM 43.8824 73.5821 281° West  Level Estimated
Sun 09:49:32 PM 43.9035 73.4273 281° West  Level Estimated
Sun 09:50:32 PM 43.9244 73.2723 281° West  Level Estimated
Sun 09:51:32 PM 43.9451 73.1172 280° West  Level Estimated
Sun 09:52:32 PM 43.9656 72.9621 280° West  Level Estimated
Sun 09:53:32 PM 43.9858 72.8068 280° West  Level Estimated
Sun 09:54:32 PM 44.0059 72.6514 280° West  Level Estimated
Sun 09:55:32 PM 44.0257 72.4959 280° West  Level Estimated
Sun 09:56:32 PM 44.0453 72.3403 280° West  Level Estimated
Sun 09:57:32 PM 44.0648 72.1846 280° West  Level Estimated
Sun 09:58:32 PM 44.0840 72.0288 280° West  Level Estimated
Sun 09:59:32 PM 44.1030 71.8729 280° West  Level Estimated
Sun 10:00:32 PM 44.1218 71.7169 279° West  Level Estimated
Sun 10:01:32 PM 44.1403 71.5608 279° West  Level Estimated
Sun 10:02:32 PM 44.1587 71.4046 279° West  Level Estimated
Sun 10:03:32 PM 44.1768 71.2483 279° West  Level Estimated
Sun 10:04:32 PM 44.1948 71.0919 279° West  Level Estimated
Sun 10:05:32 PM 44.2125 70.9354 279° West  Level Estimated
Sun 10:06:32 PM 44.2300 70.7789 279° West  Level Estimated
Sun 10:07:32 PM 44.2473 70.6222 279° West  Level Estimated
Sun 10:08:32 PM 44.2644 70.4654 279° West  Level Estimated
Sun 10:09:32 PM 44.2812 70.3086 278° West  Level Estimated
Sun 10:10:32 PM 44.2979 70.1516 278° West  Level Estimated
Sun 10:11:32 PM 44.3143 69.9946 278° West  Level Estimated
Sun 10:12:32 PM 44.3306 69.8375 278° West  Level Estimated
Sun 10:13:32 PM 44.3466 69.6803 278° West  Level Estimated
Sun 10:14:32 PM 44.3624 69.5230 278° West  Level Estimated
Sun 10:15:32 PM 44.3779 69.3656 278° West  Level Estimated
Sun 10:16:32 PM 44.3933 69.2082 278° West  Level Estimated
Sun 10:17:32 PM 44.4084 69.0506 278° West  Level Estimated
Sun 10:18:32 PM 44.4233 68.8930 277° West  Level Estimated
Sun 10:19:32 PM 44.4380 68.7353 277° West  Level Estimated
Sun 10:20:32 PM 44.4525 68.5775 277° West  Level Estimated
Sun 10:21:32 PM 44.4668 68.4197 277° West  Level Estimated
Sun 10:22:32 PM 44.4808 68.2617 277° West  Level Estimated
Sun 10:23:32 PM 44.4947 68.1037 277° West  Level Estimated
Sun 10:24:32 PM 44.5083 67.9456 277° West  Level Estimated
Sun 10:25:32 PM 44.5217 67.7875 277° West  Level Estimated
Sun 10:26:32 PM 44.5349 67.6293 277° West  Level Estimated
Sun 10:27:32 PM 44.5479 67.4710 277° West  Level Estimated
Sun 10:28:32 PM 44.5606 67.3126 276° West  Level Estimated
Sun 10:29:32 PM 44.5731 67.1542 276° West  Level Estimated
Sun 10:30:32 PM 44.5854 66.9957 276° West  Level Estimated
Sun 10:31:32 PM 44.5975 66.8371 276° West  Level Estimated
Sun 10:32:32 PM 44.6094 66.6784 276° West  Level Estimated
Sun 10:33:32 PM 44.6211 66.5197 276° West  Level Estimated
Sun 10:34:32 PM 44.6325 66.3610 276° West  Level Estimated
Sun 10:35:32 PM 44.6437 66.2021 276° West  Level Estimated
Sun 10:36:32 PM 44.6547 66.0433 275° West  Level Estimated
Sun 10:37:32 PM 44.6655 65.8843 275° West  Level Estimated
Sun 10:38:32 PM 44.6760 65.7253 275° West  Level Estimated
Sun 10:39:32 PM 44.6863 65.5662 275° West  Level Estimated
Sun 10:40:32 PM 44.6964 65.4071 275° West  Level Estimated
Sun 10:41:32 PM 44.7063 65.2479 275° West  Level Estimated
Sun 10:42:32 PM 44.7160 65.0887 275° West  Level Estimated
Sun 10:43:32 PM 44.7254 64.9294 275° West  Level Estimated
Sun 10:44:32 PM 44.7346 64.7701 275° West  Level Estimated
Sun 10:45:32 PM 44.7436 64.6107 274° West  Level Estimated
Sun 10:46:32 PM 44.7524 64.4513 274° West  Level Estimated
Sun 10:47:32 PM 44.7610 64.2918 274° West  Level Estimated
Sun 10:48:32 PM 44.7693 64.1323 274° West  Level Estimated
Sun 10:49:32 PM 44.7774 63.9727 274° West  Level Estimated
Sun 10:50:32 PM 44.7853 63.8131 274° West  Level Estimated
Sun 10:51:32 PM 44.7930 63.6534 274° West  Level Estimated
Sun 10:52:32 PM 44.8004 63.4937 274° West  Level Estimated
Sun 10:53:32 PM 44.8076 63.3340 274° West  Level Estimated
Sun 10:54:32 PM 44.8146 63.1742 273° West  Level Estimated
Sun 10:55:32 PM 44.8214 63.0144 273° West  Level Estimated
Sun 10:56:32 PM 44.8279 62.8545 273° West  Level Estimated
Sun 10:57:32 PM 44.8343 62.6946 273° West  Level Estimated
Sun 10:58:32 PM 44.8404 62.5347 273° West  Level Estimated
Sun 10:59:32 PM 44.8463 62.3747 273° West  Level Estimated
Sun 11:00:32 PM 44.8519 62.2147 273° West  Level Estimated
Sun 11:01:32 PM 44.8574 62.0547 273° West  Level Estimated
Sun 11:02:32 PM 44.8626 61.8947 273° West  Level Estimated
Sun 11:03:32 PM 44.8676 61.7346 272° West  Level Estimated
Sun 11:04:32 PM 44.8723 61.5745 272° West  Level Estimated
Sun 11:05:32 PM 44.8769 61.4143 272° West  Level Estimated
Sun 11:06:32 PM 44.8812 61.2542 272° West  Level Estimated
Sun 11:07:32 PM 44.8853 61.0940 272° West  Level Estimated
Sun 11:08:32 PM 44.8892 60.9338 272° West  Level Estimated
Sun 11:09:32 PM 44.8928 60.7736 272° West  Level Estimated
Sun 11:10:32 PM 44.8962 60.6133 272° West  Level Estimated
Sun 11:11:32 PM 44.8994 60.4531 272° West  Level Estimated
Sun 11:12:32 PM 44.9024 60.2928 271° West  Level Estimated
Sun 11:13:32 PM 44.9052 60.1325 271° West  Level Estimated
Sun 11:14:32 PM 44.9077 59.9722 271° West  Level Estimated
Sun 11:15:32 PM 44.9100 59.8119 271° West  Level Estimated
Sun 11:16:32 PM 44.9121 59.6515 271° West  Level Estimated
Sun 11:17:32 PM 44.9139 59.4912 271° West  Level Estimated
Sun 11:18:32 PM 44.9155 59.3308 271° West  Level Estimated
Sun 11:19:32 PM 44.9169 59.1704 271° West  Level Estimated
Sun 11:20:32 PM 44.9181 59.0101 271° West  Level Estimated
Sun 11:21:32 PM 44.9191 58.8497 270° West  Level Estimated
Sun 11:22:32 PM 44.9198 58.6893 270° West  Level Estimated
Sun 11:23:32 PM 44.9203 58.5289 270° West  Level Estimated
Sun 11:24:32 PM 44.9206 58.3685 270° West  Level Estimated
Sun 11:25:32 PM 44.9207 58.2081 270° West  Level Estimated
Sun 11:26:32 PM 44.9205 58.0478 270° West  Level Estimated
Sun 11:27:32 PM 44.9201 57.8874 270° West  Level Estimated
Sun 11:28:32 PM 44.9195 57.7270 270° West  Level Estimated
Sun 11:29:32 PM 44.9186 57.5666 270° West  Level Estimated
Sun 11:30:32 PM 44.9176 57.4062 269° West  Level Estimated
Sun 11:31:32 PM 44.9163 57.2459 269° West  Level Estimated
Sun 11:32:32 PM 44.9148 57.0855 269° West  Level Estimated
Sun 11:33:32 PM 44.9130 56.9252 269° West  Level Estimated
Sun 11:34:32 PM 44.9111 56.7648 269° West  Level Estimated
Sun 11:35:32 PM 44.9089 56.6045 269° West  Level Estimated
Sun 11:36:32 PM 44.9065 56.4442 269° West  Level Estimated
Sun 11:37:32 PM 44.9038 56.2839 269° West  Level Estimated
Sun 11:38:32 PM 44.9010 56.1236 268° West  Level Estimated
Sun 11:39:32 PM 44.8979 55.9633 268° West  Level Estimated
Sun 11:40:32 PM 44.8946 55.8031 268° West  Level Estimated
Sun 11:41:32 PM 44.8910 55.6428 268° West  Level Estimated
Sun 11:42:32 PM 44.8873 55.4826 268° West  Level Estimated
Sun 11:43:32 PM 44.8833 55.3224 268° West  Level Estimated
Sun 11:44:32 PM 44.8791 55.1622 268° West  Level Estimated
Sun 11:45:32 PM 44.8747 55.0021 268° West  Level Estimated
Sun 11:46:32 PM 44.8700 54.8420 268° West  Level Estimated
Sun 11:47:32 PM 44.8651 54.6819 267° West  Level Estimated
Sun 11:48:32 PM 44.8600 54.5218 267° West  Level Estimated
Sun 11:49:32 PM 44.8547 54.3618 267° West  Level Estimated
Sun 11:50:32 PM 44.8492 54.2018 267° West  Level Estimated
Sun 11:51:32 PM 44.8434 54.0418 267° West  Level Estimated
Sun 11:52:32 PM 44.8374 53.8818 267° West  Level Estimated
Sun 11:53:32 PM 44.8312 53.7219 267° West  Level Estimated
Sun 11:54:32 PM 44.8247 53.5621 267° West  Level Estimated
Sun 11:55:32 PM 44.8181 53.4022 267° West  Level Estimated
Sun 11:56:32 PM 44.8112 53.2424 266° West  Level Estimated
Sun 11:57:32 PM 44.8041 53.0827 266° West  Level Estimated
Sun 11:58:32 PM 44.7968 52.9229 266° West  Level Estimated
Sun 11:59:32 PM 44.7892 52.7633 266° West  Level Estimated
Mon 12:00:32 AM 44.7814 52.6036 266° West  Level Estimated
Mon 12:01:32 AM 44.7734 52.4440 266° West  Level Estimated
Mon 12:02:32 AM 44.7652 52.2845 266° West  Level Estimated
Mon 12:03:32 AM 44.7568 52.1250 266° West  Level Estimated
Mon 12:04:32 AM 44.7481 51.9655 266° West  Level Estimated
Mon 12:05:32 AM 44.7392 51.8061 265° West  Level Estimated
Mon 12:06:32 AM 44.7301 51.6467 265° West  Level Estimated
Mon 12:07:32 AM 44.7208 51.4874 265° West  Level Estimated
Mon 12:08:32 AM 44.7112 51.3282 265° West  Level Estimated
Mon 12:09:32 AM 44.7015 51.1690 265° West  Level Estimated
Mon 12:10:32 AM 44.6915 51.0098 265° West  Level Estimated
Mon 12:11:32 AM 44.6813 50.8507 265° West  Level Estimated
Mon 12:12:32 AM 44.6708 50.6917 265° West  Level Estimated
Mon 12:13:32 AM 44.6602 50.5327 265° West  Level Estimated
Mon 12:14:32 AM 44.6493 50.3738 264° West  Level Estimated
Mon 12:15:32 AM 44.6382 50.2149 264° West  Level Estimated
Mon 12:16:32 AM 44.6269 50.0561 264° West  Level Estimated
Mon 12:17:32 AM 44.6154 49.8974 264° West  Level Estimated
Mon 12:18:32 AM 44.6036 49.7387 264° West  Level Estimated
Mon 12:19:32 AM 44.5916 49.5801 264° West  Level Estimated
Mon 12:20:32 AM 44.5794 49.4216 264° West  Level Estimated
Mon 12:21:32 AM 44.5670 49.2631 264° West  Level Estimated
Mon 12:22:32 AM 44.5544 49.1047 264° West  Level Estimated
Mon 12:23:32 AM 44.5415 48.9464 263° West  Level Estimated
Mon 12:24:32 AM 44.5285 48.7881 263° West  Level Estimated
Mon 12:25:32 AM 44.5152 48.6299 263° West  Level Estimated
Mon 12:26:32 AM 44.5017 48.4718 263° West  Level Estimated
Mon 12:27:32 AM 44.4879 48.3137 263° West  Level Estimated
Mon 12:28:32 AM 44.4740 48.1558 263° West  Level Estimated
Mon 12:29:32 AM 44.4599 47.9979 263° West  Level Estimated
Mon 12:30:32 AM 44.4455 47.8400 263° West  Level Estimated
Mon 12:31:32 AM 44.4309 47.6823 263° West  Level Estimated
Mon 12:32:32 AM 44.4161 47.5247 262° West  Level Estimated
Mon 12:33:32 AM 44.4010 47.3671 262° West  Level Estimated
Mon 12:34:32 AM 44.3858 47.2096 262° West  Level Estimated
Mon 12:35:32 AM 44.3703 47.0522 262° West  Level Estimated
Mon 12:36:32 AM 44.3546 46.8948 262° West  Level Estimated
Mon 12:37:32 AM 44.3387 46.7376 262° West  Level Estimated
Mon 12:38:32 AM 44.3226 46.5804 262° West  Level Estimated
Mon 12:39:32 AM 44.3063 46.4234 262° West  Level Estimated
Mon 12:40:32 AM 44.2898 46.2664 262° West  Level Estimated
Mon 12:41:32 AM 44.2730 46.1095 261° West  Level Estimated
Mon 12:42:32 AM 44.2560 45.9526 261° West  Level Estimated
Mon 12:43:32 AM 44.2388 45.7959 261° West  Level Estimated
Mon 12:44:32 AM 44.2215 45.6393 261° West  Level Estimated
Mon 12:45:32 AM 44.2038 45.4828 261° West  Level Estimated
Mon 12:46:32 AM 44.1860 45.3263 261° West  Level Estimated
Mon 12:47:32 AM 44.1680 45.1700 261° West  Level Estimated
Mon 12:48:32 AM 44.1497 45.0137 261° West  Level Estimated
Mon 12:49:32 AM 44.1312 44.8576 261° West  Level Estimated
Mon 12:50:32 AM 44.1126 44.7015 260° West  Level Estimated
Mon 12:51:32 AM 44.0937 44.5456 260° West  Level Estimated
Mon 12:52:32 AM 44.0746 44.3897 260° West  Level Estimated
Mon 12:53:32 AM 44.0553 44.2340 260° West  Level Estimated
Mon 12:54:32 AM 44.0358 44.0783 260° West  Level Estimated
Mon 12:55:32 AM 44.0160 43.9228 260° West  Level Estimated
Mon 12:56:32 AM 43.9961 43.7673 260° West  Level Estimated
Mon 12:57:32 AM 43.9759 43.6120 260° West  Level Estimated
Mon 12:58:32 AM 43.9555 43.4568 260° West  Level Estimated
Mon 12:59:32 AM 43.9350 43.3017 260° West  Level Estimated
Mon 01:00:32 AM 43.9142 43.1466 259° West  Level Estimated
Mon 01:01:32 AM 43.8932 42.9917 259° West  Level Estimated
Mon 01:02:32 AM 43.8720 42.8369 259° West  Level Estimated
Mon 01:03:32 AM 43.8506 42.6822 259° West  Level Estimated
Mon 01:04:32 AM 43.8289 42.5277 259° West  Level Estimated
Mon 01:05:32 AM 43.8071 42.3732 259° West  Level Estimated
Mon 01:06:32 AM 43.7851 42.2188 259° West  Level Estimated
Mon 01:07:32 AM 43.7628 42.0646 259° West  Level Estimated
Mon 01:08:32 AM 43.7404 41.9105 259° West  Level Estimated
Mon 01:09:32 AM 43.7177 41.7565 258° West  Level Estimated
Mon 01:10:32 AM 43.6948 41.6026 258° West  Level Estimated
Mon 01:11:32 AM 43.6718 41.4488 258° West  Level Estimated
Mon 01:12:32 AM 43.6485 41.2952 258° West  Level Estimated
Mon 01:13:32 AM 43.6250 41.1416 258° West  Level Estimated
Mon 01:14:32 AM 43.6013 40.9882 258° West  Level Estimated
Mon 01:15:32 AM 43.5774 40.8349 258° West  Level Estimated
Mon 01:16:32 AM 43.5533 40.6818 258° West  Level Estimated
Mon 01:17:32 AM 43.5290 40.5287 258° West  Level Estimated
Mon 01:18:32 AM 43.5045 40.3758 257° West  Level Estimated
Mon 01:19:32 AM 43.4798 40.2230 257° West  Level Estimated
Mon 01:20:32 AM 43.4549 40.0704 257° West  Level Estimated
Mon 01:21:32 AM 43.4297 39.9178 257° West  Level Estimated
Mon 01:22:32 AM 43.4044 39.7654 257° West  Level Estimated
Mon 01:23:32 AM 43.3789 39.6131 257° West  Level Estimated
Mon 01:24:32 AM 43.3532 39.4609 257° West  Level Estimated
Mon 01:25:32 AM 43.3272 39.3089 257° West  Level Estimated
Mon 01:26:32 AM 43.3011 39.1570 257° West  Level Estimated
Mon 01:27:32 AM 43.2748 39.0052 257° West  Level Estimated
Mon 01:28:32 AM 43.2482 38.8536 256° West  Level Estimated
Mon 01:29:32 AM 43.2215 38.7021 256° West  Level Estimated
Mon 01:30:32 AM 43.1946 38.5507 256° West  Level Estimated
Mon 01:31:32 AM 43.1675 38.3995 256° West  Level Estimated
Mon 01:32:32 AM 43.1401 38.2484 256° West  Level Estimated
Mon 01:33:32 AM 43.1126 38.0974 256° West  Level Estimated
Mon 01:34:32 AM 43.0849 37.9466 256° West  Level Estimated
Mon 01:35:32 AM 43.0569 37.7959 256° West  Level Estimated
Mon 01:36:32 AM 43.0288 37.6453 256° West  Level Estimated
Mon 01:37:32 AM 43.0005 37.4949 256° West  Level Estimated
Mon 01:38:32 AM 42.9720 37.3446 255° West  Level Estimated
Mon 01:39:32 AM 42.9433 37.1945 255° West  Level Estimated
Mon 01:40:32 AM 42.9144 37.0445 255° West  Level Estimated
Mon 01:41:32 AM 42.8853 36.8946 255° West  Level Estimated
Mon 01:42:32 AM 42.8560 36.7449 255° West  Level Estimated
Mon 01:43:32 AM 42.8265 36.5953 255° West  Level Estimated
Mon 01:44:32 AM 42.7968 36.4459 255° West  Level Estimated
Mon 01:45:32 AM 42.7669 36.2966 255° West  Level Estimated
Mon 01:46:32 AM 42.7368 36.1475 255° West  Level Estimated
Mon 01:47:32 AM 42.7066 35.9985 254° West  Level Estimated
Mon 01:48:32 AM 42.6761 35.8496 254° West  Level Estimated
Mon 01:49:32 AM 42.6455 35.7009 254° West  Level Estimated
Mon 01:50:32 AM 42.6146 35.5524 254° West  Level Estimated
Mon 01:51:32 AM 42.5836 35.4039 254° West  Level Estimated
Mon 01:52:32 AM 42.5523 35.2557 254° West  Level Estimated
Mon 01:53:32 AM 42.5209 35.1076 254° West  Level Estimated
Mon 01:54:32 AM 42.4893 34.9596 254° West  Level Estimated
Mon 01:55:32 AM 42.4575 34.8118 254° West  Level Estimated
Mon 01:56:32 AM 42.4255 34.6641 254° West  Level Estimated
Mon 01:57:32 AM 42.3933 34.5166 253° West  Level Estimated
Mon 01:58:32 AM 42.3610 34.3693 253° West  Level Estimated
Mon 01:59:32 AM 42.3284 34.2220 253° West  Level Estimated
Mon 02:00:32 AM 42.2957 34.0750 253° West  Level Estimated
Mon 02:01:32 AM 42.2627 33.9281 253° West  Level Estimated
Mon 02:02:32 AM 42.2296 33.7813 253° West  Level Estimated
Mon 02:03:32 AM 42.1963 33.6348 253° West  Level Estimated
Mon 02:04:32 AM 42.1628 33.4883 253° West  Level Estimated
Mon 02:05:32 AM 42.1292 33.3420 253° West  Level Estimated
Mon 02:06:32 AM 42.0953 33.1959 253° West  Level Estimated
Mon 02:07:32 AM 42.0612 33.0499 253° West  Level Estimated
Mon 02:08:32 AM 42.0270 32.9041 252° West  Level Estimated
Mon 02:09:32 AM 41.9926 32.7584 252° West  Level Estimated
Mon 02:10:32 AM 41.9580 32.6129 252° West  Level Estimated
Mon 02:11:32 AM 41.9232 32.4676 252° West  Level Estimated
Mon 02:12:32 AM 41.8882 32.3224 252° West  Level Estimated
Mon 02:13:32 AM 41.8531 32.1774 252° West  Level Estimated
Mon 02:14:32 AM 41.8177 32.0326 252° West  Level Estimated
Mon 02:15:32 AM 41.7822 31.8878 252° West  Level Estimated
Mon 02:16:32 AM 41.7465 31.7433 252° West  Level Estimated
Mon 02:17:32 AM 41.7107 31.5989 252° West  Level Estimated
Mon 02:18:32 AM 41.6746 31.4547 251° West  Level Estimated
Mon 02:19:32 AM 41.6384 31.3106 251° West  Level Estimated
Mon 02:20:32 AM 41.6019 31.1667 251° West  Level Estimated
Mon 02:21:32 AM 41.5653 31.0230 251° West  Level Estimated
Mon 02:22:32 AM 41.5286 30.8794 251° West  Level Estimated
Mon 02:23:32 AM 41.4916 30.7360 251° West  Level Estimated
Mon 02:24:32 AM 41.4545 30.5928 251° West  Level Estimated
Mon 02:25:32 AM 41.4172 30.4497 251° West  Level Estimated
Mon 02:26:32 AM 41.3797 30.3068 251° West  Level Estimated
Mon 02:27:32 AM 41.3420 30.1640 251° West  Level Estimated
Mon 02:28:32 AM 41.3042 30.0215 250° West  Level Estimated
Mon 02:29:32 AM 41.2662 29.8790 250° West  Level Estimated
Mon 02:30:32 AM 41.2280 29.7368 250° West  Level Estimated
Mon 02:31:32 AM 41.1896 29.5947 250° West  Level Estimated
Mon 02:32:32 AM 41.1511 29.4528 250° West  Level Estimated
Mon 02:33:32 AM 41.1124 29.3110 250° West  Level Estimated
Mon 02:34:32 AM 41.0735 29.1694 250° West  Level Estimated
Mon 02:35:32 AM 41.0344 29.0280 250° West  Level Estimated
Mon 02:36:32 AM 40.9952 28.8868 250° West  Level Estimated
Mon 02:37:32 AM 40.9558 28.7457 70° East  Level Estimated
Mon 02:38:32 AM 40.9952 28.8868 250° West  Level Estimated
Mon 02:39:32 AM 40.9558 28.7457 70° East  Level Estimated
Mon 02:40:32 AM 40.9952 28.8868 250° West  Level Estimated
Mon 02:41:32 AM 40.9558 28.7457 70° East  Level Estimated
Mon 02:42:32 AM 40.9952 28.8868 250° West  Level Estimated
Mon 02:43:32 AM 40.9558 28.7457 70° East  Level Estimated
Mon 02:44:32 AM 40.9952 28.8868 250° West  Level Estimated
Mon 02:45:32 AM 40.9558 28.7457 70° East  Level Estimated
Mon 02:46:32 AM 40.9952 28.8868 250° West  Level Estimated
Mon 02:47:32 AM 40.9558 28.7457 70° East  Level Estimated
Mon 02:48:32 AM 40.9952 28.8868 250° West  Level Estimated
Mon 02:49:32 AM 40.9558 28.7457 70° East  Level Estimated
Mon 02:50:32 AM 40.9952 28.8868 250° West  Level Estimated
Mon 02:51:32 AM 40.9558 28.7457 70° East  Level Estimated
Mon 02:52:32 AM 40.9952 28.8868 70° East  Level Estimated

Login

Don't have an account? Register now (free) for customized features, flight alerts, and more!